createdAt,value
2023-05-19T00:04:18.259Z,101278.34
2023-05-19T00:09:20.743Z,101277.96
2023-05-19T00:14:23.129Z,101276.88
2023-05-19T00:19:25.745Z,101275.39
2023-05-19T00:24:28.329Z,101270.65
2023-05-19T00:29:30.499Z,101263.54
2023-05-19T00:34:32.994Z,101261.57
2023-05-19T00:39:35.178Z,101260.64
2023-05-19T00:44:41.460Z,101256.33
2023-05-19T00:49:43.643Z,101253.14
2023-05-19T00:54:46.286Z,101247.27
2023-05-19T00:59:48.860Z,101240.91
2023-05-19T01:04:51.755Z,101241.60
2023-05-19T01:09:54.435Z,101240.98
2023-05-19T01:14:58.768Z,101245.19
2023-05-19T01:20:10.779Z,101243.03
2023-05-19T01:25:37.852Z,101247.00
2023-05-19T01:30:41.361Z,101248.05
2023-05-19T01:35:45.409Z,101252.77
2023-05-19T01:40:49.131Z,101243.70
2023-05-19T01:45:52.056Z,101242.06
2023-05-19T01:50:57.068Z,101237.52
2023-05-19T01:55:59.560Z,101244.58
2023-05-19T02:01:27.510Z,101245.19
2023-05-19T02:06:46.034Z,101242.13
2023-05-19T02:12:14.417Z,101248.06
2023-05-19T02:17:20.152Z,101249.39
2023-05-19T02:22:22.258Z,101250.55
2023-05-19T02:27:24.647Z,101253.16
2023-05-19T02:32:26.876Z,101252.95
2023-05-19T02:37:29.428Z,101253.20
2023-05-19T02:42:31.716Z,101249.15
2023-05-19T02:47:36.217Z,101251.02
2023-05-19T02:52:39.461Z,101247.45
2023-05-19T02:57:42.054Z,101247.36
2023-05-19T03:02:44.417Z,101247.66
2023-05-19T03:07:47.249Z,101246.48
2023-05-19T03:12:49.426Z,101246.26
2023-05-19T03:17:51.808Z,101252.29
2023-05-19T03:22:54.104Z,101243.23
2023-05-19T03:27:56.398Z,101246.79
2023-05-19T03:33:01.360Z,101248.61
2023-05-19T03:38:03.632Z,101249.05
2023-05-19T03:43:05.919Z,101245.53
2023-05-19T03:48:08.172Z,101247.39
2023-05-19T03:53:10.490Z,101246.23
2023-05-19T03:58:14.213Z,101247.16
2023-05-19T04:03:16.638Z,101243.13
2023-05-19T04:08:18.988Z,101243.40
2023-05-19T04:13:21.389Z,101241.71
2023-05-19T04:18:23.768Z,101241.95
2023-05-19T04:23:26.164Z,101245.45
2023-05-19T04:28:28.546Z,101248.35
2023-05-19T04:33:30.634Z,101250.92
2023-05-19T04:38:33.326Z,101253.51
2023-05-19T04:43:35.611Z,101256.73
2023-05-19T04:48:37.876Z,101253.73
2023-05-19T04:53:41.309Z,101256.27
2023-05-19T04:58:44.162Z,101263.82
2023-05-19T05:03:46.401Z,101268.20
2023-05-19T05:08:49.246Z,101269.48
2023-05-19T05:13:52.096Z,101278.16
2023-05-19T05:18:54.605Z,101270.75
2023-05-19T05:23:57.043Z,101271.12
2023-05-19T05:28:59.233Z,101269.42
2023-05-19T05:34:01.372Z,101264.56
2023-05-19T05:39:05.266Z,101267.33
2023-05-19T05:44:07.554Z,101271.15
2023-05-19T05:49:12.090Z,101274.66
2023-05-19T05:54:18.803Z,101274.79
2023-05-19T05:59:21.072Z,101276.33
2023-05-19T06:04:23.364Z,101282.38
2023-05-19T06:09:25.565Z,101284.19
2023-05-19T06:14:28.029Z,101287.80
2023-05-19T06:19:30.802Z,101293.23
2023-05-19T06:24:33.221Z,101287.13
2023-05-19T06:29:35.509Z,101289.29
2023-05-19T06:34:40.051Z,101284.30
2023-05-19T06:39:42.229Z,101288.34
2023-05-19T06:44:44.415Z,101290.84
2023-05-19T06:49:50.403Z,101288.63
2023-05-19T06:54:52.675Z,101292.40
2023-05-19T06:59:55.021Z,101292.23
2023-05-19T07:04:57.261Z,101300.31
2023-05-19T07:09:59.636Z,101299.09
2023-05-19T07:15:01.825Z,101302.02
2023-05-19T07:20:09.640Z,101305.81
2023-05-19T07:25:11.826Z,101311.77
2023-05-19T07:30:14.017Z,101318.66
2023-05-19T07:35:16.394Z,101324.02
2023-05-19T07:40:18.892Z,101321.73
2023-05-19T07:45:21.276Z,101325.13
2023-05-19T07:50:23.572Z,101329.08
2023-05-19T07:55:26.177Z,101334.82
2023-05-19T08:00:28.496Z,101336.94
2023-05-19T08:05:30.941Z,101341.21
2023-05-19T08:10:33.266Z,101335.73
2023-05-19T08:15:36.470Z,101334.04
2023-05-19T08:20:38.851Z,101327.53
2023-05-19T08:25:41.523Z,101322.65
2023-05-19T08:30:43.800Z,101321.45
2023-05-19T08:35:46.292Z,101325.83
2023-05-19T08:40:48.582Z,101326.04
2023-05-19T08:45:53.839Z,101323.38
2023-05-19T08:51:32.837Z,101321.73
2023-05-19T08:56:35.477Z,101322.44
2023-05-19T09:01:39.422Z,101320.77
2023-05-19T09:06:41.997Z,101323.19
2023-05-19T09:11:46.894Z,101324.17
2023-05-19T09:16:52.041Z,101327.35
2023-05-19T09:22:04.702Z,101323.56
2023-05-19T09:27:06.911Z,101322.07
2023-05-19T09:32:09.113Z,101323.77
2023-05-19T09:37:13.023Z,101321.16
2023-05-19T09:42:16.434Z,101321.95
2023-05-19T09:47:18.514Z,101319.82
2023-05-19T09:52:21.586Z,101318.80
2023-05-19T09:57:28.215Z,101315.05
2023-05-19T10:02:32.109Z,101313.80
2023-05-19T10:07:34.931Z,101313.26
2023-05-19T10:12:39.061Z,101309.86
2023-05-19T10:17:43.469Z,101314.46
2023-05-19T10:22:46.556Z,101313.48
2023-05-19T10:28:04.764Z,101314.70
2023-05-19T10:33:11.359Z,101313.48
2023-05-19T10:38:34.247Z,101321.36
2023-05-19T10:44:24.652Z,101315.66
2023-05-19T10:49:27.297Z,101312.60
2023-05-19T10:54:45.677Z,101315.41
2023-05-19T10:59:49.218Z,101316.09
2023-05-19T11:04:52.221Z,101317.82
2023-05-19T11:09:54.513Z,101319.08
2023-05-19T11:14:57.933Z,101318.00
2023-05-19T11:20:00.113Z,101313.97
2023-05-19T11:25:03.708Z,101305.11
2023-05-19T11:30:11.136Z,101299.85
2023-05-19T11:35:14.232Z,101291.58
2023-05-19T11:40:17.134Z,101288.73
2023-05-19T11:45:31.446Z,101299.70
2023-05-19T11:50:36.556Z,101308.92
2023-05-19T11:55:44.206Z,101309.52
2023-05-19T12:00:47.065Z,101313.65
2023-05-19T12:05:49.826Z,101309.50
2023-05-19T12:10:52.359Z,101302.83
2023-05-19T12:16:00.759Z,101298.50
2023-05-19T12:21:03.546Z,101297.66
2023-05-19T12:26:06.305Z,101302.00
2023-05-19T12:31:08.626Z,101305.25
2023-05-19T12:36:13.218Z,101305.35
2023-05-19T12:41:17.969Z,101306.33
2023-05-19T12:46:20.129Z,101305.95
2023-05-19T12:51:22.226Z,101316.83
2023-05-19T12:56:26.692Z,101313.24
2023-05-19T13:01:29.148Z,101310.14
2023-05-19T13:06:32.691Z,101301.58
2023-05-19T13:11:34.768Z,101305.02
2023-05-19T13:16:36.818Z,101288.05
2023-05-19T13:21:38.912Z,101278.66
2023-05-19T13:26:41.193Z,101273.57
2023-05-19T13:31:43.213Z,101268.15
2023-05-19T13:36:47.778Z,101261.55
2023-05-19T13:41:50.322Z,101256.13
2023-05-19T13:46:52.597Z,101264.98
2023-05-19T13:51:58.282Z,101279.65
2023-05-19T13:57:00.867Z,101281.92
2023-05-19T14:02:05.129Z,101282.33
2023-05-19T14:07:09.271Z,101282.66
2023-05-19T14:12:12.020Z,101282.84
2023-05-19T14:17:14.205Z,101271.06
2023-05-19T14:22:17.823Z,101263.98
2023-05-19T14:27:20.106Z,101257.76
2023-05-19T14:32:22.355Z,101250.20
2023-05-19T14:37:28.576Z,101247.13
2023-05-19T14:42:30.869Z,101247.63
2023-05-19T14:47:33.171Z,101244.73
2023-05-19T14:52:35.328Z,101256.95
2023-05-19T14:57:37.714Z,101254.08
2023-05-19T15:02:40.059Z,101251.20
2023-05-19T15:07:43.217Z,101254.49
2023-05-19T15:12:46.217Z,101253.94
2023-05-19T15:17:48.552Z,101249.25
2023-05-19T15:22:50.786Z,101246.86
2023-05-19T15:27:52.974Z,101238.48
2023-05-19T15:32:56.592Z,101236.30
2023-05-19T15:38:04.825Z,101235.02
2023-05-19T15:43:07.106Z,101227.21
2023-05-19T15:48:09.342Z,101228.92
2023-05-19T15:53:11.578Z,101228.85
2023-05-19T15:58:15.198Z,101226.65
2023-05-19T16:03:17.789Z,101227.03
2023-05-19T16:08:20.083Z,101223.56
2023-05-19T16:13:22.780Z,101224.79
2023-05-19T16:18:24.860Z,101227.17
2023-05-19T16:23:27.151Z,101233.55
2023-05-19T16:28:29.330Z,101233.17
2023-05-19T16:33:31.515Z,101230.59
2023-05-19T16:38:33.695Z,101229.47
2023-05-19T16:43:36.091Z,101232.45
2023-05-19T16:48:38.269Z,101233.92
2023-05-19T16:53:40.866Z,101235.19
2023-05-19T16:58:43.051Z,101230.63
2023-05-19T17:03:45.271Z,101230.91
2023-05-19T17:08:49.042Z,101232.08
2023-05-19T17:13:51.069Z,101225.77
2023-05-19T17:18:53.235Z,101228.66
2023-05-19T17:23:56.040Z,101226.95
2023-05-19T17:28:58.974Z,101224.62
2023-05-19T17:34:01.411Z,101228.85
2023-05-19T17:39:03.717Z,101224.89
2023-05-19T17:44:06.494Z,101230.54
2023-05-19T17:49:10.212Z,101231.95
2023-05-19T17:54:12.806Z,101229.09
2023-05-19T17:59:15.510Z,101233.08
2023-05-19T18:04:18.317Z,101233.95
2023-05-19T18:09:23.307Z,101237.55
2023-05-19T18:14:25.653Z,101235.30
2023-05-19T18:19:29.015Z,101230.20
2023-05-19T18:24:31.245Z,101226.38
2023-05-19T18:29:34.446Z,101232.70
2023-05-19T18:34:36.525Z,101230.54
2023-05-19T18:39:38.822Z,101234.80
2023-05-19T18:44:42.031Z,101235.40
2023-05-19T18:49:44.617Z,101237.38
2023-05-19T18:54:47.239Z,101239.02
2023-05-19T18:59:49.298Z,101237.98
2023-05-19T19:04:51.620Z,101235.09
2023-05-19T19:09:53.970Z,101239.96
2023-05-19T19:14:56.203Z,101243.71
2023-05-19T19:19:58.476Z,101248.40
2023-05-19T19:25:00.835Z,101252.55
2023-05-19T19:30:04.343Z,101249.96
2023-05-19T19:35:07.142Z,101252.68
2023-05-19T19:40:09.718Z,101253.47
2023-05-19T19:45:14.779Z,101260.27
2023-05-19T19:50:18.421Z,101258.65
2023-05-19T19:55:20.734Z,101258.86
2023-05-19T20:00:23.087Z,101255.35
2023-05-19T20:05:25.633Z,101260.80
2023-05-19T20:10:28.084Z,101267.71
2023-05-19T20:15:30.304Z,101258.50
2023-05-19T20:20:32.566Z,101258.14
2023-05-19T20:25:51.054Z,101260.79
2023-05-19T20:31:00.983Z,101266.56
2023-05-19T20:36:05.814Z,101261.99
2023-05-19T20:41:07.965Z,101260.64
2023-05-19T20:46:10.361Z,101262.27
2023-05-19T20:51:12.777Z,101259.04
2023-05-19T20:56:15.987Z,101255.80
2023-05-19T21:01:18.218Z,101251.52
2023-05-19T21:06:20.284Z,101244.02
2023-05-19T21:11:22.649Z,101245.89
2023-05-19T21:16:25.768Z,101246.92
2023-05-19T21:21:28.352Z,101250.52
2023-05-19T21:26:30.584Z,101248.36
2023-05-19T21:31:34.856Z,101245.92
2023-05-19T21:36:38.024Z,101248.68
2023-05-19T21:41:40.164Z,101251.31
2023-05-19T21:46:42.668Z,101256.64
2023-05-19T21:51:44.938Z,101253.67
2023-05-19T21:56:47.232Z,101250.63
2023-05-19T22:01:49.678Z,101253.02
2023-05-19T22:06:52.211Z,101256.11
2023-05-19T22:11:54.587Z,101253.31
2023-05-19T22:16:56.776Z,101247.72
2023-05-19T22:22:06.018Z,101243.30
2023-05-19T22:27:15.894Z,101244.34
2023-05-19T22:32:19.197Z,101244.20
2023-05-19T22:37:23.134Z,101248.08
2023-05-19T22:42:25.618Z,101254.52
2023-05-19T22:47:29.302Z,101254.59
2023-05-19T22:52:31.622Z,101253.82
2023-05-19T22:57:33.903Z,101256.58
2023-05-19T23:02:36.236Z,101253.77
2023-05-19T23:08:37.074Z,101252.55
2023-05-19T23:13:39.138Z,101247.31
2023-05-19T23:18:41.438Z,101244.95
2023-05-19T23:23:43.499Z,101249.27
2023-05-19T23:28:45.684Z,101244.63
2023-05-19T23:33:48.075Z,101245.17
2023-05-19T23:38:50.670Z,101247.70
2023-05-19T23:43:52.864Z,101244.64
2023-05-19T23:48:55.050Z,101243.00
2023-05-19T23:53:57.538Z,101245.23
2023-05-19T23:58:59.621Z,101243.42
